首页
METAR-TAF:

METAR-TAF

机场 :

拉罗歇尔, 法国

纬度: 46-10-45N, 经度: 1-11-43W, 海拔: 23米

当前天气观测

该预报发布于18分钟前的02:30 UTC
风速7节,风向
温度 23°C
湿度 73%
气压 1016 hPa
能见度10公里或以上
1500米以下无云,无积雨云

METAR: LFBH 270230Z AUTO 10007KT CAVOK 23/18 Q1016 NOSIG

时间: 04:48 (02:48 UTC)

预报

该预报发布于3小时和48分钟前的23:00 UTC
预报有效从27日的 00点(UTC)到 27日的 24点(UTC)
风速10节,风向
能见度10公里或以上
1500米以下无云,无积雨云

TAF: LFBH 262300Z 2700/2724 10010KT CAVOK

超过4000个机场的气象观测和天气预报(METAR&TAF报告)。

可查询的气象台以黄色和红色小点在地图上表示。

将鼠标移到小点上方,可查看气象台名称。

然后点击查看天气观测和预报。

如需切换地图:点击带黑十字的绿色按钮放大地图;点击带横线的绿色按钮缩小地图;或者点击绿色箭头查看邻近地区的地图。


METAR-TAF: